DFW Airport, Texas
Current Conditions -  °F | °C
As of 8:53 PM on Saturday 25 Oct 2014 (Local Time) from KDFW Reporting Station
Clear Clear  
Wind Chill: 79°   Ceiling: Unl
Heat Index: 80°   Visibility: 10mi
Dew Point: 59°   Wind: 9mph
Humidity: 50%   Direction: 170°S
Pressure: 30.05"   Gusts: NA
Location:  32.9°N, 97.03°W
Report Text: KDFW 260153Z 17008KT 10SM CLR 26/15 A3005 RMK AO2 SLP167 T02610150
Loading
Personal Weather Stations






























Interactive Weather Map
Tropical Storm Tracking
New forecast layout! Learn more

10-Day Weather Forecast

Advertisements
Track Severe Weather on mobile